Time;durP1;ratioP1;P1;durP2;ratioP2;P2;SDS_P1;SDS_P2;PMS_P1;PMS_P2;Temp;Humidity;BMP_temperature;BMP_pressure;BME280_temperature;BME280_humidity;BME280_pressure;Samples;Min_cycle;Max_cycle;Signal;HPM_P1;HPM_P2
2022/08/01 00:00:01;;;;;;;10.35;5.47;;;;;;;18.01;100.00;101454.22;1035029;28;20038;-74
2022/08/01 00:00:35;;;;;;;10.98;5.13;;;;;;;18.00;100.00;101451.78;1028812;28;20038;-75
2022/08/01 00:01:06;;;;;;;5.97;5.40;;;;;;;18.00;100.00;101454.47;1027213;28;20058;-75
2022/08/01 00:01:38;;;;;;;6.47;5.40;;;;;;;17.98;100.00;101449.34;1027098;28;20043;-74
2022/08/01 00:02:10;;;;;;;5.18;4.68;;;;;;;17.98;100.00;101449.34;1027190;28;20043;-75
2022/08/01 00:02:42;;;;;;;10.80;5.47;;;;;;;17.95;100.00;101447.16;1029247;28;20053;-75
2022/08/01 00:03:14;;;;;;;6.97;5.93;;;;;;;17.97;100.00;101447.72;1030988;28;20045;-75
2022/08/01 00:03:45;;;;;;;6.32;5.75;;;;;;;17.98;100.00;101448.53;1030728;28;20038;-75
2022/08/01 00:04:17;;;;;;;8.63;6.13;;;;;;;17.99;100.00;101450.16;1027406;28;20051;-75
2022/08/01 00:04:49;;;;;;;6.90;5.70;;;;;;;17.98;100.00;101454.72;1027312;28;20043;-74
2022/08/01 00:05:20;;;;;;;7.88;6.90;;;;;;;17.99;100.00;101450.16;1023305;28;20043;-74
2022/08/01 00:05:52;;;;;;;6.63;6.03;;;;;;;17.98;100.00;101452.03;1023095;28;20050;-75
2022/08/01 00:06:23;;;;;;;7.00;5.13;;;;;;;18.00;100.00;101454.47;1018868;29;20047;-75
2022/08/01 00:06:55;;;;;;;7.88;5.18;;;;;;;17.99;100.00;101450.97;1016505;29;20048;-75
2022/08/01 00:07:26;;;;;;;9.13;5.32;;;;;;;18.02;100.00;101455.03;1020935;29;20487;-75
2022/08/01 00:07:58;;;;;;;6.47;5.30;;;;;;;17.98;100.00;101454.72;1022787;28;20114;-74
2022/08/01 00:08:30;;;;;;;11.13;5.65;;;;;;;17.98;100.00;101454.72;1027588;28;21162;-75
2022/08/01 00:09:02;;;;;;;6.70;6.05;;;;;;;18.01;100.00;101448.84;1027457;28;20046;-75
2022/08/01 00:09:33;;;;;;;7.25;6.00;;;;;;;17.96;100.00;101454.16;1027058;28;20515;-75
2022/08/01 00:10:08;;;;;;;6.53;5.82;;;;;;;17.95;100.00;101455.22;1022728;29;20051;-75
2022/08/01 00:10:39;;;;;;;5.93;5.07;;;;;;;17.96;100.00;101451.47;1023823;28;20047;-75
2022/08/01 00:11:11;;;;;;;5.65;4.60;;;;;;;17.98;100.00;101446.63;1027024;28;20043;-74
2022/08/01 00:11:42;;;;;;;5.90;5.03;;;;;;;17.94;100.00;101450.09;1027877;28;20039;-75
2022/08/01 00:12:14;;;;;;;5.80;5.30;;;;;;;17.95;100.00;101444.44;1031231;28;20038;-75
2022/08/01 00:12:45;;;;;;;6.88;6.13;;;;;;;17.94;100.00;101448.22;1028617;28;20046;-75
2022/08/01 00:13:17;;;;;;;10.88;5.88;;;;;;;17.96;100.00;101448.78;1030251;28;20042;-75
2022/08/01 00:13:49;;;;;;;7.65;5.63;;;;;;;17.96;100.00;101448.78;1027474;28;20118;-75
2022/08/01 00:14:20;;;;;;;9.85;5.18;;;;;;;17.92;100.00;101453.03;1024187;28;20372;-75
2022/08/01 00:15:05;;;;;;;7.57;5.43;;;;;;;17.97;100.00;101447.72;1025604;28;20121;-76
2022/08/01 00:15:37;;;;;;;8.30;5.53;;;;;;;17.98;100.00;101453.91;1026555;28;20411;-74
2022/08/01 00:16:08;;;;;;;6.32;4.97;;;;;;;17.97;100.00;101446.88;1028199;28;20058;-75
2022/08/01 00:16:40;;;;;;;12.45;6.10;;;;;;;17.98;100.00;101449.34;1027304;28;20051;-75
2022/08/01 00:17:11;;;;;;;9.90;5.35;;;;;;;17.98;100.00;101453.91;1027418;28;20511;-75
2022/08/01 00:17:44;;;;;;;5.82;5.22;;;;;;;17.95;100.00;101452.53;1025227;28;20043;-75
2022/08/01 00:18:16;;;;;;;7.63;5.43;;;;;;;17.94;100.00;101459.00;1028443;28;20042;-75
2022/08/01 00:18:47;;;;;;;5.88;5.28;;;;;;;17.94;100.00;101453.59;1033656;28;20054;-75
2022/08/01 00:19:19;;;;;;;7.70;5.78;;;;;;;17.93;100.00;101454.66;1032446;28;20046;-75
2022/08/01 00:19:50;;;;;;;6.88;5.50;;;;;;;17.92;100.00;101455.72;1031225;28;20038;-75
2022/08/01 00:20:22;;;;;;;6.03;5.43;;;;;;;17.95;100.00;101463.31;1027935;28;20039;-74
2022/08/01 00:20:53;;;;;;;6.85;6.05;;;;;;;17.96;100.00;101462.25;1027587;28;20058;-75
2022/08/01 00:21:25;;;;;;;7.82;5.55;;;;;;;17.94;100.00;101456.28;1027836;28;20059;-75
2022/08/01 00:21:57;;;;;;;5.85;5.35;;;;;;;17.96;100.00;101459.56;1028494;28;20043;-75
2022/08/01 00:22:30;;;;;;;5.93;5.32;;;;;;;17.94;100.00;101459.00;1027336;28;20039;-75
2022/08/01 00:23:03;;;;;;;7.32;5.82;;;;;;;17.91;100.00;101454.09;1027881;28;20065;-75
2022/08/01 00:23:35;;;;;;;7.53;5.18;;;;;;;17.92;100.00;101461.94;1027185;28;20050;-74
2022/08/01 00:24:08;;;;;;;6.57;4.70;;;;;;;17.92;100.00;101455.72;1020820;29;20175;-75
2022/08/01 00:24:45;;;;;;;5.80;5.20;;;;;;;17.93;100.00;101451.97;1025429;28;20047;-74
2022/08/01 00:25:17;;;;;;;7.05;5.28;;;;;;;17.91;100.00;101454.09;1023764;28;20122;-75
2022/08/01 00:25:49;;;;;;;11.15;6.00;;;;;;;17.92;100.00;101455.72;1021783;29;20051;-74
2022/08/01 00:26:20;;;;;;;5.85;5.35;;;;;;;17.93;100.00;101454.66;1027631;28;20121;-75
2022/08/01 00:26:52;;;;;;;6.25;4.93;;;;;;;17.94;100.00;101456.28;1026917;28;20047;-75
2022/08/01 00:27:23;;;;;;;8.80;6.10;;;;;;;17.89;100.00;101456.25;1024368;28;20047;-75
2022/08/01 00:27:55;;;;;;;6.53;5.40;;;;;;;17.89;100.00;101458.94;1027306;28;20046;-76
2022/08/01 00:28:27;;;;;;;6.50;5.05;;;;;;;17.88;100.00;101455.41;1027922;28;20071;-75
2022/08/01 00:28:59;;;;;;;5.75;5.20;;;;;;;17.88;100.00;101454.59;1028015;28;20043;-75
2022/08/01 00:29:30;;;;;;;8.38;5.85;;;;;;;17.85;100.00;101449.72;1027625;28;20046;-75
2022/08/01 00:30:22;;;;;;;6.18;5.05;;;;;;;17.87;100.00;101459.19;1030543;28;20429;-74
2022/08/01 00:30:53;;;;;;;6.25;5.25;;;;;;;17.88;100.00;101454.59;1031719;28;20042;-75
2022/08/01 00:31:25;;;;;;;5.85;5.22;;;;;;;17.93;100.00;101457.38;1034665;28;20136;-75
2022/08/01 00:31:56;;;;;;;7.53;5.43;;;;;;;17.90;100.00;101457.88;1034066;28;20053;-75
2022/08/01 00:32:31;;;;;;;8.25;5.63;;;;;;;17.89;100.00;101462.44;1029610;28;20053;-74
2022/08/01 00:33:02;;;;;;;5.47;4.97;;;;;;;17.87;100.00;101459.19;1029375;28;20038;-75
2022/08/01 00:33:34;;;;;;;6.43;5.82;;;;;;;17.88;100.00;101462.69;1030856;28;20065;-75
2022/08/01 00:34:05;;;;;;;5.30;4.80;;;;;;;17.84;100.00;101456.19;1028551;28;20046;-75
2022/08/01 00:34:37;;;;;;;5.43;4.90;;;;;;;17.87;100.00;101463.75;1027464;28;20046;-75
2022/08/01 00:35:09;;;;;;;5.38;4.88;;;;;;;17.86;100.00;101460.25;1024043;28;20043;-75
2022/08/01 00:35:41;;;;;;;6.13;4.65;;;;;;;17.88;100.00;101465.38;1025660;28;20051;-75
2022/08/01 00:36:12;;;;;;;10.55;5.25;;;;;;;17.89;100.00;101456.25;1024092;28;20054;-75
2022/08/01 00:36:44;;;;;;;8.15;5.78;;;;;;;17.86;100.00;101459.44;1027866;28;20054;-75
2022/08/01 00:37:16;;;;;;;8.38;6.05;;;;;;;17.83;100.00;101462.63;1032070;28;20201;-75
2022/08/01 00:37:47;;;;;;;5.72;5.07;;;;;;;17.84;100.00;101456.19;1032033;28;20050;-74
2022/08/01 00:38:19;;;;;;;13.93;6.07;;;;;;;17.82;100.00;101456.44;1028787;28;20498;-74
2022/08/01 00:38:50;;;;;;;7.70;4.50;;;;;;;17.83;100.00;101457.25;1030200;28;20042;-75
2022/08/01 00:39:22;;;;;;;5.80;5.28;;;;;;;17.83;100.00;101458.06;1028434;28;20062;-75
2022/08/01 00:39:54;;;;;;;6.50;4.95;;;;;;;17.83;100.00;101457.25;1026762;28;20043;-76
2022/08/01 00:40:25;;;;;;;6.00;4.50;;;;;;;17.84;100.00;101458.88;1026109;28;20039;-75
2022/08/01 00:40:57;;;;;;;5.40;4.90;;;;;;;17.82;100.00;101455.63;1026351;28;20062;-75
2022/08/01 00:41:28;;;;;;;5.38;4.88;;;;;;;17.82;100.00;101461.00;1030375;28;20042;-75
2022/08/01 00:42:06;;;;;;;6.07;4.70;;;;;;;17.84;100.00;101450.78;1032143;28;20054;-75
2022/08/01 00:42:37;;;;;;;5.47;4.93;;;;;;;17.84;100.00;101459.69;1032797;28;20074;-75
2022/08/01 00:43:14;;;;;;;6.15;4.30;;;;;;;17.90;100.00;101455.16;1034915;28;20054;-75
2022/08/01 00:43:46;;;;;;;6.90;5.15;;;;;;;17.84;100.00;101451.59;1033958;28;20046;-75
2022/08/01 00:44:17;;;;;;;5.68;5.15;;;;;;;17.85;100.00;101460.50;1032748;28;20049;-75
2022/08/01 00:44:49;;;;;;;8.60;5.15;;;;;;;17.85;100.00;101449.72;1035758;28;20038;-75
2022/08/01 00:45:20;;;;;;;5.60;5.10;;;;;;;17.84;100.00;101458.88;1032013;28;20043;-75
2022/08/01 00:45:52;;;;;;;8.88;4.85;;;;;;;17.87;100.00;101452.97;1027173;28;20038;-75
2022/08/01 00:46:24;;;;;;;5.65;4.80;;;;;;;17.84;100.00;101450.78;1027660;28;20047;-75
2022/08/01 00:46:55;;;;;;;6.78;4.82;;;;;;;17.80;100.00;101452.31;1027987;28;20054;-75
2022/08/01 00:47:27;;;;;;;5.60;5.00;;;;;;;17.81;100.00;101454.78;1035812;28;20045;-75
2022/08/01 00:47:58;;;;;;;5.93;5.22;;;;;;;17.81;100.00;101451.28;1035520;28;20038;-75
2022/08/01 00:48:30;;;;;;;7.15;4.60;;;;;;;17.80;100.00;101453.13;1033323;28;20041;-75
2022/08/01 00:49:02;;;;;;;5.10;4.38;;;;;;;17.80;100.00;101460.41;1033596;28;20047;-75
2022/08/01 00:49:34;;;;;;;12.02;5.70;;;;;;;17.77;100.00;101456.34;1031211;28;20042;-76
2022/08/01 00:50:07;;;;;;;7.05;4.28;;;;;;;17.81;100.00;101448.59;1030031;28;21672;-75
2022/08/01 00:50:38;;;;;;;6.35;5.72;;;;;;;17.79;100.00;101448.00;1031955;28;20502;-75
2022/08/01 00:51:10;;;;;;;6.43;5.07;;;;;;;17.78;100.00;101449.06;1028053;28;20047;-74
2022/08/01 00:51:42;;;;;;;7.50;4.47;;;;;;;17.77;100.00;101442.03;1019569;29;20523;-74
2022/08/01 00:52:13;;;;;;;5.63;5.05;;;;;;;17.77;100.00;101458.22;1020161;28;20419;-75
2022/08/01 00:52:45;;;;;;;5.40;4.63;;;;;;;17.76;100.00;101454.69;1023995;28;20051;-76
2022/08/01 00:53:22;;;;;;;5.40;4.65;;;;;;;17.77;100.00;101445.56;1030220;28;20526;-75
2022/08/01 00:53:56;;;;;;;5.95;4.82;;;;;;;17.70;100.00;101452.19;1034734;28;20046;-75
2022/08/01 00:54:29;;;;;;;5.57;4.90;;;;;;;17.74;100.00;101450.63;1038576;28;20521;-75
2022/08/01 00:55:00;;;;;;;5.65;4.47;;;;;;;17.74;100.00;101453.31;1035596;28;20038;-76
2022/08/01 00:55:32;;;;;;;5.50;4.90;;;;;;;17.74;100.00;101453.31;1031385;28;20045;-75
2022/08/01 00:56:04;;;;;;;6.97;4.82;;;;;;;17.69;100.00;101448.69;1031654;28;20050;-75
2022/08/01 00:56:36;;;;;;;4.72;4.22;;;;;;;17.72;100.00;101450.88;1032170;28;20038;-75
2022/08/01 00:57:07;;;;;;;8.50;4.55;;;;;;;17.76;100.00;101451.19;1031664;28;20042;-75
2022/08/01 00:57:41;;;;;;;5.78;4.18;;;;;;;17.70;100.00;101447.63;1029406;28;20051;-74
2022/08/01 00:58:33;;;;;;;6.82;4.63;;;;;;;17.74;100.00;101453.31;1034389;28;20080;-75
2022/08/01 00:59:05;;;;;;;6.88;4.95;;;;;;;17.70;100.00;101453.00;1036133;28;20095;-76
2022/08/01 00:59:38;;;;;;;5.65;5.10;;;;;;;17.72;100.00;101450.06;1032685;28;20042;-75
2022/08/01 01:00:12;;;;;;;5.45;4.57;;;;;;;17.74;100.00;101450.63;1034408;28;20197;-76
2022/08/01 01:00:44;;;;;;;5.88;4.53;;;;;;;17.76;100.00;101449.31;1035137;28;20156;-75
2022/08/01 01:01:25;;;;;;;5.88;4.82;;;;;;;17.74;100.00;101453.31;1036049;28;20527;-75
2022/08/01 01:02:10;;;;;;;5.07;4.40;;;;;;;17.74;100.00;101447.94;1035121;28;20519;-75
2022/08/01 01:02:46;;;;;;;5.72;4.40;;;;;;;17.75;100.00;101447.69;1031720;28;20046;-75
2022/08/01 01:03:18;;;;;;;4.82;4.32;;;;;;;17.76;100.00;101451.19;1027405;28;20043;-76
2022/08/01 01:03:50;;;;;;;5.28;4.80;;;;;;;17.73;100.00;101451.69;1026436;28;20045;-75
2022/08/01 01:04:30;;;;;;;6.00;4.30;;;;;;;17.75;100.00;101438.78;1025864;28;20047;-76
2022/08/01 01:05:02;;;;;;;6.53;4.95;;;;;;;17.77;100.00;101447.44;1029062;28;20050;-75
2022/08/01 01:05:45;;;;;;;5.25;4.47;;;;;;;17.75;100.00;101449.56;1029268;28;20046;-75
2022/08/01 01:06:25;;;;;;;6.47;4.97;;;;;;;17.76;100.00;101456.59;1027164;28;20047;-75
2022/08/01 01:06:59;;;;;;;5.07;4.57;;;;;;;17.79;100.00;101450.69;1029810;28;20053;-75
2022/08/01 01:07:43;;;;;;;4.35;3.95;;;;;;;17.76;100.00;101443.09;1030572;28;20045;-75
2022/08/01 01:08:24;;;;;;;5.20;4.65;;;;;;;17.78;100.00;101443.69;1035968;28;20573;-75
2022/08/01 01:09:03;;;;;;;4.28;3.72;;;;;;;17.75;100.00;101449.56;1033670;28;20050;-75
2022/08/01 01:10:04;;;;;;;7.25;4.75;;;;;;;17.77;100.00;101455.53;1031910;28;20046;-75
2022/08/01 01:10:56;;;;;;;5.18;4.22;;;;;;;17.78;100.00;101449.06;1034170;28;20185;-76
2022/08/01 01:11:43;;;;;;;;;;;;;;;17.76;100.00;101448.50;1029666;28;20049;-75
2022/08/01 01:12:31;;;;;;;9.90;4.93;;;;;;;17.77;100.00;101447.44;1026449;28;19922;-75
2022/08/01 01:13:14;;;;;;;5.30;3.92;;;;;;;17.68;100.00;101452.44;1028694;28;20047;-75
2022/08/01 01:13:55;;;;;;;8.52;4.47;;;;;;;17.70;100.00;101452.19;1023834;28;20292;-75
2022/08/01 01:14:36;;;;;;;5.35;4.72;;;;;;;17.69;100.00;101445.19;1027226;28;20410;-75
2022/08/01 01:15:23;;;;;;;10.38;4.45;;;;;;;17.70;100.00;101452.19;1031175;28;20046;-75
2022/08/01 01:16:13;;;;;;;5.40;3.88;;;;;;;17.73;100.00;101451.69;1029267;28;20089;-75
2022/08/01 01:16:46;;;;;;;4.68;3.72;;;;;;;17.70;100.00;101449.50;1027600;28;20043;-75
2022/08/01 01:17:21;;;;;;;7.70;5.22;;;;;;;17.70;100.00;101446.81;1019393;29;20047;-76
2022/08/01 01:18:24;;;;;;;7.03;3.78;;;;;;;17.74;100.00;101453.31;1023192;29;20071;-75
2022/08/01 01:19:00;;;;;;;5.25;4.38;;;;;;;17.74;100.00;101450.63;1024905;28;20055;-75
2022/08/01 01:19:33;;;;;;;5.03;4.50;;;;;;;17.77;100.00;101450.94;1027262;28;20039;-76
2022/08/01 01:20:06;;;;;;;4.75;4.32;;;;;;;17.73;100.00;101451.69;1023594;29;20043;-75
2022/08/01 01:20:41;;;;;;;6.13;3.38;;;;;;;17.75;100.00;101449.56;1021266;29;20534;-75
2022/08/01 01:21:16;;;;;;;7.00;4.22;;;;;;;17.70;100.00;101453.00;1020824;29;20054;-74
2022/08/01 01:22:25;;;;;;;4.95;4.05;;;;;;;17.72;100.00;101444.69;1025036;28;20051;-75
2022/08/01 01:23:06;;;;;;;5.07;4.45;;;;;;;17.70;100.00;101452.19;1017644;29;20055;-75
2022/08/01 01:24:11;;;;;;;4.32;3.88;;;;;;;17.70;100.00;101454.88;1015371;29;20121;-75
2022/08/01 01:25:29;;;;;;;5.13;4.07;;;;;;;17.73;100.00;101451.69;1025891;28;20046;-75
2022/08/01 01:26:04;;;;;;;6.78;4.50;;;;;;;17.73;100.00;101449.81;1007875;29;20556;-76
2022/08/01 01:26:50;;;;;;;4.13;3.53;;;;;;;17.70;100.00;101452.19;1019735;28;20493;-76
2022/08/01 01:27:31;;;;;;;6.90;4.03;;;;;;;17.70;100.00;101441.41;1031559;28;20046;-75
2022/08/01 01:28:15;;;;;;;6.90;4.25;;;;;;;17.69;100.00;101451.38;1030624;28;20207;-75
2022/08/01 01:28:54;;;;;;;5.55;4.75;;;;;;;17.67;100.00;101452.66;1029348;28;20106;-76
2022/08/01 01:29:44;;;;;;;5.38;4.45;;;;;;;17.70;100.00;101447.63;1035348;28;20060;-75
2022/08/01 01:30:32;;;;;;;6.07;3.70;;;;;;;17.74;100.00;101442.53;1032589;28;20042;-75
2022/08/01 01:31:06;;;;;;;6.82;4.07;;;;;;;17.74;100.00;101447.94;1031664;28;20042;-75
2022/08/01 01:32:01;;;;;;;4.80;3.92;;;;;;;17.70;100.00;101447.63;1029443;28;20054;-75
2022/08/01 01:32:36;;;;;;;5.68;4.10;;;;;;;17.71;100.00;101437.66;1035063;28;20050;-75
2022/08/01 01:33:10;;;;;;;4.85;4.35;;;;;;;17.70;100.00;101441.41;1027549;28;20046;-75
2022/08/01 01:33:41;;;;;;;7.30;4.15;;;;;;;17.67;100.00;101452.66;1035230;28;20099;-75
2022/08/01 01:34:20;;;;;;;8.32;5.22;;;;;;;17.66;100.00;101445.66;1035390;28;20046;-75
2022/08/01 01:34:54;;;;;;;4.63;3.78;;;;;;;17.64;100.00;101445.09;1036057;28;20042;-75
2022/08/01 01:35:28;;;;;;;8.52;4.32;;;;;;;17.68;100.00;101444.34;1035654;28;20045;-76
2022/08/01 01:36:03;;;;;;;5.45;4.40;;;;;;;17.66;100.00;101446.47;1031548;28;20048;-75
2022/08/01 01:36:42;;;;;;;18.92;5.13;;;;;;;17.63;100.00;101446.97;1029115;28;20051;-75
2022/08/01 01:37:18;;;;;;;4.47;3.83;;;;;;;17.62;100.00;101453.41;1033674;28;20045;-75
2022/08/01 01:37:53;;;;;;;7.30;3.92;;;;;;;17.64;100.00;101447.78;1037797;28;20046;-75
2022/08/01 01:38:29;;;;;;;7.53;4.68;;;;;;;17.66;100.00;101445.66;1033034;28;20108;-75
2022/08/01 01:39:01;;;;;;;5.63;4.28;;;;;;;17.67;100.00;101445.44;1031366;28;20445;-76
2022/08/01 01:39:35;;;;;;;4.78;4.35;;;;;;;17.69;100.00;101446.00;1033375;28;20042;-75
2022/08/01 01:40:07;;;;;;;7.07;4.45;;;;;;;17.67;100.00;101442.72;1035602;28;20042;-75
2022/08/01 01:40:40;;;;;;;5.55;4.10;;;;;;;17.67;100.00;101452.66;1032059;28;20042;-75
2022/08/01 01:41:14;;;;;;;4.80;4.25;;;;;;;17.67;100.00;101449.97;1031804;28;20415;-75
2022/08/01 01:41:46;;;;;;;7.10;4.22;;;;;;;17.70;100.00;101446.81;1022380;29;20055;-75
2022/08/01 01:42:19;;;;;;;5.63;4.68;;;;;;;17.70;100.00;101450.31;1020288;29;20047;-76
2022/08/01 01:42:51;;;;;;;7.20;3.85;;;;;;;17.69;100.00;101450.56;1024586;28;20062;-76
2022/08/01 01:43:23;;;;;;;4.55;4.00;;;;;;;17.71;100.00;101443.84;1028305;28;20050;-76
2022/08/01 01:44:05;;;;;;;5.32;3.97;;;;;;;17.68;100.00;101448.94;1027872;28;20046;-75
2022/08/01 01:44:37;;;;;;;5.35;4.60;;;;;;;17.69;100.00;101439.78;1025268;28;20058;-76
2022/08/01 01:45:10;;;;;;;5.07;4.05;;;;;;;17.73;100.00;101454.38;1029590;28;20125;-76
2022/08/01 01:45:42;;;;;;;4.22;3.83;;;;;;;17.74;100.00;101447.94;1029383;28;20050;-75
2022/08/01 01:46:17;;;;;;;6.43;4.95;;;;;;;17.74;100.00;101450.63;1027448;28;20042;-74
2022/08/01 01:46:51;;;;;;;5.20;4.03;;;;;;;17.70;100.00;101460.28;1027606;28;20047;-75
2022/08/01 01:47:23;;;;;;;5.13;4.10;;;;;;;17.71;100.00;101453.81;1028555;28;20410;-75
2022/08/01 01:47:56;;;;;;;6.50;4.28;;;;;;;17.71;100.00;101453.81;1028985;28;20085;-74
2022/08/01 01:48:28;;;;;;;7.47;4.03;;;;;;;17.70;100.00;101457.59;1029621;28;20051;-75
2022/08/01 01:49:01;;;;;;;4.75;3.80;;;;;;;17.72;100.00;101455.44;1027210;28;20895;-76
2022/08/01 01:49:33;;;;;;;4.15;3.72;;;;;;;17.75;100.00;101455.78;1023540;29;20475;-75
2022/08/01 01:50:07;;;;;;;7.75;4.03;;;;;;;17.75;100.00;101457.66;1024224;28;20058;-75
2022/08/01 01:50:39;;;;;;;5.95;4.75;;;;;;;17.75;100.00;101449.56;1025542;28;20035;-75
2022/08/01 01:51:12;;;;;;;7.13;4.82;;;;;;;17.72;100.00;101450.06;1027375;28;20038;-74
2022/08/01 01:51:44;;;;;;;7.82;4.55;;;;;;;17.72;100.00;101460.84;1028014;28;20650;-75
2022/08/01 01:52:33;;;;;;;4.68;3.80;;;;;;;17.73;100.00;101455.19;1034784;28;20409;-75
2022/08/01 01:53:06;;;;;;;7.28;5.15;;;;;;;17.73;100.00;101457.91;1038365;28;20042;-76
2022/08/01 01:53:46;;;;;;;5.47;4.53;;;;;;;17.72;100.00;101456.28;1031665;28;20450;-75
2022/08/01 01:54:19;;;;;;;12.35;4.60;;;;;;;17.72;100.00;101467.03;1030997;28;20116;-76
2022/08/01 01:54:51;;;;;;;5.47;4.18;;;;;;;17.75;100.00;101461.16;1029411;28;20066;-76
2022/08/01 01:55:24;;;;;;;4.72;4.05;;;;;;;17.71;100.00;101457.34;1028076;28;20050;-76
2022/08/01 01:55:57;;;;;;;6.53;4.38;;;;;;;17.76;100.00;101460.09;1031240;28;20038;-75
2022/08/01 01:56:29;;;;;;;5.20;4.38;;;;;;;17.78;100.00;101459.84;1024391;28;20039;-75
2022/08/01 01:57:03;;;;;;;7.38;4.50;;;;;;;17.77;100.00;101464.41;1028314;28;20047;-75
2022/08/01 01:57:41;;;;;;;5.35;4.13;;;;;;;17.76;100.00;101457.41;1029545;28;20049;-75
2022/08/01 01:58:13;;;;;;;5.70;4.32;;;;;;;17.76;100.00;101461.97;1032535;28;20042;-75
2022/08/01 01:58:50;;;;;;;6.07;4.05;;;;;;;17.74;100.00;101464.91;1031302;28;20293;-75
2022/08/01 01:59:25;;;;;;;7.72;4.15;;;;;;;17.74;100.00;101461.41;1027516;28;20430;-76
2022/08/01 01:59:57;;;;;;;4.88;3.90;;;;;;;17.78;100.00;101466.03;1028782;28;20051;-76
2022/08/01 02:00:29;;;;;;;5.63;3.80;;;;;;;17.74;100.00;101459.53;1033419;28;20114;-75
2022/08/01 02:01:02;;;;;;;4.65;4.25;;;;;;;17.72;100.00;101464.34;1032335;28;20441;-75
2022/08/01 02:01:34;;;;;;;5.38;4.32;;;;;;;17.72;100.00;101469.75;1030724;28;20649;-75
2022/08/01 02:02:27;;;;;;;7.78;4.57;;;;;;;17.69;100.00;101472.13;1030701;28;20104;-75
2022/08/01 02:02:59;;;;;;;8.77;4.00;;;;;;;17.71;100.00;101464.59;1031252;28;20049;-75
2022/08/01 02:03:31;;;;;;;6.32;4.35;;;;;;;17.62;100.00;101461.50;1034850;28;20048;-77
2022/08/01 02:04:03;;;;;;;5.70;4.05;;;;;;;17.61;100.00;101457.97;1035423;28;20421;-76
2022/08/01 02:04:36;;;;;;;8.73;4.32;;;;;;;17.66;100.00;101467.19;1035623;28;20509;-75
2022/08/01 02:05:10;;;;;;;6.25;4.50;;;;;;;17.73;100.00;101462.47;1032137;28;20047;-75
2022/08/01 02:05:42;;;;;;;4.55;4.05;;;;;;;17.69;100.00;101464.03;1031311;28;20145;-75
2022/08/01 02:06:14;;;;;;;8.05;4.20;;;;;;;17.68;100.00;101459.72;1027386;28;20038;-75
2022/08/01 02:06:46;;;;;;;6.50;4.22;;;;;;;17.70;100.00;101461.09;1028390;28;20054;-76
2022/08/01 02:07:21;;;;;;;7.55;4.30;;;;;;;17.74;100.00;101464.09;1032354;28;20046;-75
2022/08/01 02:07:53;;;;;;;5.22;4.28;;;;;;;17.68;100.00;101465.91;1032047;28;20406;-75
2022/08/01 02:08:31;;;;;;;6.85;4.30;;;;;;;17.68;100.00;101459.72;1035495;28;20097;-76
2022/08/01 02:09:04;;;;;;;7.40;4.13;;;;;;;17.65;100.00;101455.59;1035060;28;20108;-76
2022/08/01 02:09:37;;;;;;;6.78;4.20;;;;;;;17.72;100.00;101460.84;1035464;28;20078;-76
2022/08/01 02:10:10;;;;;;;6.10;4.57;;;;;;;17.67;100.00;101458.06;1031094;28;20043;-75
2022/08/01 02:11:17;;;;;;;6.47;4.40;;;;;;;17.70;100.00;101462.97;1032222;28;20053;-76
2022/08/01 02:11:35;;;;;;;7.68;4.50;;;;;;;17.67;100.00;101461.59;1030973;28;20045;-75
2022/08/01 02:12:28;;;;;;;4.05;3.63;;;;;;;17.63;100.00;101462.31;1031430;28;20046;-75
2022/08/01 02:13:03;;;;;;;7.35;3.85;;;;;;;17.70;100.00;101465.66;1029096;28;20052;-75
2022/08/01 02:13:35;;;;;;;5.78;4.10;;;;;;;17.63;100.00;101468.50;1025315;28;20447;-76
2022/08/01 02:14:08;;;;;;;6.22;4.30;;;;;;;17.66;100.00;101461.81;1023348;29;20046;-76
2022/08/01 02:14:40;;;;;;;5.82;4.45;;;;;;;17.63;100.00;101462.31;1021431;28;20035;-75
2022/08/01 02:15:13;;;;;;;4.95;4.45;;;;;;;17.63;100.00;101467.69;1027562;28;20114;-75
2022/08/01 02:15:45;;;;;;;5.93;4.60;;;;;;;17.60;100.00;101474.41;1025720;28;20122;-76
2022/08/01 02:16:35;;;;;;;5.18;4.32;;;;;;;17.65;100.00;101470.97;1027496;28;20038;-75
2022/08/01 02:17:11;;;;;;;5.57;3.97;;;;;;;17.68;100.00;101459.72;1025595;28;20043;-75
2022/08/01 02:17:45;;;;;;;5.28;3.65;;;;;;;17.58;100.00;101466.56;1025763;28;20051;-75
2022/08/01 02:18:17;;;;;;;6.93;4.43;;;;;;;17.57;100.00;101464.94;1022458;28;20048;-75
2022/08/01 02:18:54;;;;;;;8.32;4.85;;;;;;;17.61;100.00;101460.69;1025654;28;20076;-75
2022/08/01 02:19:27;;;;;;;5.10;4.60;;;;;;;17.57;100.00;101470.31;1025108;28;20055;-75
2022/08/01 02:19:58;;;;;;;7.50;4.35;;;;;;;17.56;100.00;101463.31;1028305;28;20047;-75
2022/08/01 02:20:30;;;;;;;4.88;4.43;;;;;;;17.55;100.00;101461.69;1028671;28;20039;-75
2022/08/01 02:21:04;;;;;;;7.30;4.30;;;;;;;17.53;100.00;101469.19;1023730;28;20039;-76
2022/08/01 02:21:41;;;;;;;6.05;4.65;;;;;;;17.53;100.00;101458.41;1023382;29;20419;-76
2022/08/01 02:22:43;;;;;;;7.35;5.13;;;;;;;17.55;100.00;101455.47;1017795;29;20052;-75
2022/08/01 02:23:15;;;;;;;6.55;4.38;;;;;;;17.54;100.00;101453.84;1031249;28;20062;-76
2022/08/01 02:23:47;;;;;;;5.43;4.05;;;;;;;17.53;100.00;101458.41;1031929;28;20042;-75
2022/08/01 02:24:25;;;;;;;4.63;4.07;;;;;;;17.53;100.00;101463.81;1035527;28;20423;-75
2022/08/01 02:25:06;;;;;;;6.45;5.35;;;;;;;17.49;100.00;101457.25;1031370;28;20049;-75
2022/08/01 02:25:49;;;;;;;12.05;5.28;;;;;;;17.54;100.00;101459.22;1033843;28;20046;-76
2022/08/01 02:26:49;;;;;;;5.90;4.90;;;;;;;17.52;100.00;101459.44;1035220;28;20088;-75
2022/08/01 02:27:25;;;;;;;8.45;4.63;;;;;;;17.54;100.00;101448.47;1033147;28;20045;-75
2022/08/01 02:28:03;;;;;;;7.53;4.88;;;;;;;17.54;100.00;101454.66;1031137;28;20061;-75
2022/08/01 02:28:45;;;;;;;6.47;5.03;;;;;;;17.56;100.00;101454.41;1031206;28;20062;-75
2022/08/01 02:29:22;;;;;;;5.78;4.90;;;;;;;17.57;100.00;101458.72;1034904;28;20042;-76
2022/08/01 02:29:58;;;;;;;7.10;5.00;;;;;;;17.51;100.00;101455.13;1034583;28;20041;-75
2022/08/01 02:30:33;;;;;;;7.53;5.00;;;;;;;17.50;100.00;101453.50;1024114;28;20070;-75
2022/08/01 02:31:08;;;;;;;8.50;5.38;;;;;;;17.50;100.00;101452.69;1024530;28;20119;-75
2022/08/01 02:31:44;;;;;;;6.40;4.88;;;;;;;17.55;100.00;101458.97;1022883;28;20051;-76
2022/08/01 02:32:42;;;;;;;8.93;5.10;;;;;;;17.54;100.00;101457.34;1022628;28;20043;-75
2022/08/01 02:33:22;;;;;;;7.47;4.72;;;;;;;17.55;100.00;101455.47;1025051;28;20148;-76
2022/08/01 02:33:58;;;;;;;7.00;5.50;;;;;;;17.54;100.00;101454.66;1032593;28;20065;-76
2022/08/01 02:34:32;;;;;;;9.80;5.57;;;;;;;17.52;100.00;101451.38;1031269;28;20293;-75
2022/08/01 02:35:07;;;;;;;6.88;5.47;;;;;;;17.57;100.00;101451.47;1031252;28;20042;-76
2022/08/01 02:35:41;;;;;;;6.30;5.22;;;;;;;17.59;100.00;101452.03;1027438;28;20507;-75
2022/08/01 02:36:35;;;;;;;8.30;6.18;;;;;;;17.58;100.00;101450.41;1029296;28;20597;-75
2022/08/01 02:37:07;;;;;;;8.45;6.07;;;;;;;17.55;100.00;101453.59;1023384;28;20419;-75
2022/08/01 02:37:39;;;;;;;7.15;5.57;;;;;;;17.50;100.00;101445.41;1026067;28;20038;-75
2022/08/01 02:38:16;;;;;;;5.18;4.68;;;;;;;17.54;100.00;101454.66;1027175;28;20129;-75
2022/08/01 02:38:48;;;;;;;7.10;5.30;;;;;;;17.49;100.00;101451.06;1019580;29;20520;-74
2022/08/01 02:39:21;;;;;;;7.85;5.47;;;;;;;17.48;100.00;101454.81;1019404;28;20044;-75
2022/08/01 02:39:54;;;;;;;6.97;6.22;;;;;;;17.47;100.00;101451.28;1019208;29;20043;-75
2022/08/01 02:40:28;;;;;;;6.32;5.35;;;;;;;17.48;100.00;101452.13;1019193;29;20051;-75
2022/08/01 02:41:04;;;;;;;8.27;6.30;;;;;;;17.48;100.00;101455.63;1019710;29;20055;-75
2022/08/01 02:41:42;;;;;;;6.88;5.80;;;;;;;17.45;100.00;101456.13;1022593;28;20048;-75
2022/08/01 02:42:15;;;;;;;8.75;5.75;;;;;;;17.47;100.00;101447.78;1025554;28;20407;-74
2022/08/01 02:42:50;;;;;;;7.45;5.63;;;;;;;17.42;100.00;101451.22;1029186;28;20050;-75
2022/08/01 02:43:23;;;;;;;9.98;6.28;;;;;;;17.42;100.00;101451.22;1026874;28;20054;-76